Terminal Aerodrome Forecast
Issued by NWS

Home | Current Version | Previous Version | Text Only | Print | Product List | Glossary On
Versions: 1 2 3 4 5 6 7 8 9 10 11 12 13 14 15
655
FTUS43 KEAX 280520
TAFMKC
TAF
KMKC 280520Z 2806/2906 07005KT P6SM VCSH OVC100
      TEMPO 2806/2809 -SHRA BKN035
     FM281100 10010KT P6SM -SHRA OVC035
     FM281500 11009KT P6SM OVC015
     FM282300 35007KT P6SM BKN020
     FM290500 02010KT P6SM BKN010=

USA.gov is the U.S. government's official web portal to all federal, state and local government web resources and services.